Time;durP1;ratioP1;P1;durP2;ratioP2;P2;SDS_P1;SDS_P2;PMS_P1;PMS_P2;Temp;Humidity;BMP_temperature;BMP_pressure;BME280_temperature;BME280_humidity;BME280_pressure;Samples;Min_cycle;Max_cycle;Signal;HPM_P1;HPM_P2
2022/08/14 00:00:44;;;;;;;3.45;3.15;;;24.00;43.80;;;;;;5019639;28;20200;-76
2022/08/14 00:03:18;;;;;;;3.95;3.20;;;24.00;43.90;;;;;;5035943;28;20228;-76
2022/08/14 00:05:46;;;;;;;3.40;3.10;;;23.90;43.80;;;;;;5020045;28;20620;-76
2022/08/14 00:08:14;;;;;;;3.25;3.00;;;23.90;43.70;;;;;;5036171;28;20251;-76
2022/08/14 00:10:41;;;;;;;3.58;3.28;;;23.90;43.90;;;;;;5037412;28;20278;-76
2022/08/14 00:13:09;;;;;;;3.17;2.97;;;23.90;44.00;;;;;;5036655;28;20204;-76
2022/08/14 00:15:38;;;;;;;3.50;3.20;;;23.90;44.00;;;;;;5019003;28;20230;-76
2022/08/14 00:18:05;;;;;;;3.35;3.10;;;23.90;44.10;;;;;;5035569;28;20222;-76
2022/08/14 00:20:33;;;;;;;3.40;3.13;;;23.90;44.10;;;;;;5018817;28;20202;-76
2022/08/14 00:23:01;;;;;;;3.63;3.33;;;23.80;44.20;;;;;;5035329;28;20253;-76
2022/08/14 00:25:29;;;;;;;3.88;3.58;;;23.80;44.20;;;;;;5035464;28;20200;-76
2022/08/14 00:27:56;;;;;;;3.40;3.10;;;23.80;44.20;;;;;;5035384;28;20274;-76
2022/08/14 00:30:23;;;;;;;3.80;3.50;;;23.80;44.30;;;;;;5035361;28;20647;-76
2022/08/14 00:32:50;;;;;;;3.83;3.53;;;23.80;44.30;;;;;;5035085;28;20200;-76
2022/08/14 00:35:17;;;;;;;4.15;3.53;;;23.80;44.30;;;;;;5034686;28;20270;-76
2022/08/14 00:37:45;;;;;;;3.78;3.47;;;23.80;44.30;;;;;;5034889;28;20278;-76
2022/08/14 00:40:13;;;;;;;3.70;3.40;;;23.70;44.20;;;;;;5034910;28;20309;-76
2022/08/14 00:42:42;;;;;;;3.90;3.60;;;23.70;44.20;;;;;;5019298;28;20196;-76
2022/08/14 00:45:11;;;;;;;3.85;3.55;;;23.70;44.20;;;;;;5035225;28;20203;-76
2022/08/14 00:47:39;;;;;;;4.32;3.92;;;23.70;44.20;;;;;;5002565;28;20726;-76
2022/08/14 00:50:08;;;;;;;4.75;4.35;;;23.70;44.30;;;;;;5034892;28;20203;-76
2022/08/14 00:52:35;;;;;;;4.22;3.83;;;23.70;44.20;;;;;;5034677;28;20200;-76
2022/08/14 00:55:02;;;;;;;5.82;5.22;;;23.70;44.30;;;;;;5018490;28;20196;-76
2022/08/14 00:57:30;;;;;;;5.47;4.97;;;23.70;44.20;;;;;;5017966;28;20276;-76
2022/08/14 00:59:59;;;;;;;5.45;4.95;;;23.70;44.40;;;;;;5034604;28;20199;-76
2022/08/14 01:02:26;;;;;;;5.18;4.63;;;23.70;44.40;;;;;;5034927;28;20254;-76
2022/08/14 01:04:57;;;;;;;6.22;5.32;;;23.70;44.50;;;;;;5034836;28;20250;-76
2022/08/14 01:07:25;;;;;;;7.28;5.80;;;23.70;44.50;;;;;;5034557;28;20188;-76
2022/08/14 01:09:55;;;;;;;8.93;7.20;;;23.60;44.50;;;;;;5034322;28;20196;-76
2022/08/14 01:12:22;;;;;;;7.88;6.93;;;23.60;44.50;;;;;;5018051;28;20229;-76
2022/08/14 01:14:50;;;;;;;8.50;6.82;;;23.60;44.50;;;;;;5035496;28;20197;-76
2022/08/14 01:17:19;;;;;;;8.00;7.13;;;23.60;44.50;;;;;;5033913;28;20251;-76
2022/08/14 01:22:35;;;;;;;10.10;9.07;;;23.60;44.70;;;;;;5033779;28;20184;-76
2022/08/14 01:25:02;;;;;;;11.50;9.48;;;23.50;44.60;;;;;;5033389;28;20571;-76
2022/08/14 01:27:29;;;;;;;10.75;9.25;;;23.50;44.70;;;;;;5034946;28;20212;-76
2022/08/14 01:29:57;;;;;;;12.15;10.05;;;23.50;44.80;;;;;;5034781;28;20212;-76
2022/08/14 01:32:24;;;;;;;13.85;11.20;;;23.50;44.80;;;;;;5033973;28;20204;-76
2022/08/14 01:34:52;;;;;;;12.82;11.43;;;23.50;44.80;;;;;;5033456;28;20254;-76
2022/08/14 01:37:22;;;;;;;13.55;11.52;;;23.50;44.90;;;;;;5033223;28;20247;-76
2022/08/14 01:39:51;;;;;;;12.25;10.95;;;23.40;44.80;;;;;;5033334;28;20204;-76
2022/08/14 01:42:18;;;;;;;11.55;10.30;;;23.40;44.80;;;;;;5033687;28;20277;-76
2022/08/14 01:44:49;;;;;;;10.40;9.27;;;23.40;44.80;;;;;;5033460;28;20279;-76
2022/08/14 01:47:17;;;;;;;10.80;9.60;;;23.50;45.00;;;;;;5033399;28;20181;-76
2022/08/14 01:49:44;;;;;;;10.27;9.15;;;23.50;45.00;;;;;;5000855;28;20574;-76
2022/08/14 01:52:12;;;;;;;10.95;9.15;;;23.40;44.90;;;;;;5033540;28;20284;-76
2022/08/14 01:54:38;;;;;;;10.02;9.02;;;23.40;44.90;;;;;;5034639;28;20199;-76
2022/08/14 01:57:09;;;;;;;10.15;8.88;;;23.40;45.00;;;;;;5016928;28;20251;-76
2022/08/14 01:59:38;;;;;;;9.50;8.18;;;23.40;45.00;;;;;;5034013;28;20196;-76
2022/08/14 02:02:11;;;;;;;9.88;8.85;;;23.40;45.00;;;;;;5034704;28;20206;-76
2022/08/14 02:04:38;;;;;;;9.48;8.48;;;23.40;45.00;;;;;;5034249;28;20195;-76
2022/08/14 02:07:05;;;;;;;9.20;8.10;;;23.40;45.10;;;;;;5034440;28;20192;-76
2022/08/14 02:09:34;;;;;;;9.27;7.53;;;23.30;45.00;;;;;;5033346;28;20685;-76
2022/08/14 02:12:01;;;;;;;7.90;7.10;;;23.30;45.00;;;;;;5033475;28;20269;-76
2022/08/14 02:14:30;;;;;;;8.73;7.18;;;23.30;45.10;;;;;;5033648;28;20723;-76
2022/08/14 02:16:57;;;;;;;7.95;6.95;;;23.30;45.10;;;;;;5033494;28;20235;-76
2022/08/14 02:19:25;;;;;;;7.05;6.45;;;23.30;45.10;;;;;;5033522;28;20785;-76
2022/08/14 02:21:54;;;;;;;7.10;6.40;;;23.30;45.20;;;;;;5034285;28;20635;-76
2022/08/14 02:24:22;;;;;;;6.20;5.60;;;23.30;45.30;;;;;;5033764;28;20200;-76
2022/08/14 02:26:49;;;;;;;6.20;5.70;;;23.20;45.10;;;;;;5032757;28;20192;-76
2022/08/14 02:29:17;;;;;;;6.05;5.45;;;23.30;45.20;;;;;;5033884;28;20315;-76
2022/08/14 02:31:48;;;;;;;6.28;5.68;;;23.20;45.20;;;;;;5037855;28;20196;-76
2022/08/14 02:34:17;;;;;;;5.78;5.20;;;23.20;45.30;;;;;;5036729;28;20639;-76
2022/08/14 02:36:44;;;;;;;5.50;5.00;;;23.20;45.20;;;;;;5036901;28;20224;-76
2022/08/14 02:39:12;;;;;;;5.80;5.30;;;23.20;45.30;;;;;;5020335;28;20228;-76
2022/08/14 02:41:39;;;;;;;4.78;4.38;;;23.20;45.30;;;;;;5037141;28;20207;-76
2022/08/14 02:44:08;;;;;;;5.32;4.82;;;23.10;45.10;;;;;;5037862;28;20513;-76
2022/08/14 02:46:35;;;;;;;4.78;4.38;;;23.20;45.30;;;;;;5037078;28;20197;-76
2022/08/14 02:49:05;;;;;;;4.60;4.22;;;23.20;45.30;;;;;;5036979;28;20588;-76
2022/08/14 02:51:32;;;;;;;4.50;4.10;;;23.10;45.90;;;;;;5036834;28;20192;-76
2022/08/14 02:54:00;;;;;;;4.43;4.03;;;23.10;45.30;;;;;;5036981;28;20667;-76
2022/08/14 02:56:27;;;;;;;4.53;4.13;;;23.10;45.30;;;;;;5037026;28;20204;-76
2022/08/14 02:58:56;;;;;;;3.92;3.63;;;23.10;45.30;;;;;;5020565;28;20215;-76
2022/08/14 03:01:23;;;;;;;3.85;3.55;;;23.10;45.30;;;;;;5036880;28;20196;-76
2022/08/14 03:03:51;;;;;;;4.20;3.88;;;23.10;45.40;;;;;;5036719;28;20617;-76
2022/08/14 03:06:21;;;;;;;3.75;3.45;;;23.10;45.40;;;;;;5037073;28;20200;-76
2022/08/14 03:08:48;;;;;;;4.18;3.70;;;23.10;45.50;;;;;;5036773;28;20220;-76
2022/08/14 03:11:16;;;;;;;3.60;3.20;;;23.10;45.50;;;;;;5038311;28;20200;-76
2022/08/14 03:13:43;;;;;;;3.70;3.40;;;23.00;45.40;;;;;;5021532;28;20235;-76
2022/08/14 03:16:13;;;;;;;3.63;3.33;;;23.00;46.10;;;;;;5041895;28;20200;-76
2022/08/14 03:18:42;;;;;;;3.40;3.20;;;23.00;45.40;;;;;;5058647;28;20215;-76
2022/08/14 03:21:12;;;;;;;3.20;2.90;;;23.00;45.50;;;;;;5060754;28;20215;-76
2022/08/14 03:23:41;;;;;;;3.35;3.03;;;23.00;45.50;;;;;;5054506;28;20210;-76
2022/08/14 03:26:08;;;;;;;3.05;2.80;;;23.00;45.60;;;;;;5037140;28;20196;-75
2022/08/14 03:28:39;;;;;;;3.40;3.10;;;23.00;45.50;;;;;;5037519;28;20215;-76
2022/08/14 03:31:06;;;;;;;3.28;2.97;;;23.00;45.50;;;;;;5036534;28;20211;-76
2022/08/14 03:33:36;;;;;;;4.05;3.10;;;23.10;45.50;;;;;;5037564;28;20192;-76
2022/08/14 03:36:07;;;;;;;3.47;3.17;;;23.10;45.60;;;;;;5036797;28;20189;-76
2022/08/14 03:38:41;;;;;;;3.47;3.20;;;23.10;45.30;;;;;;5036340;28;20324;-76
2022/08/14 03:41:15;;;;;;;3.10;2.90;;;23.10;45.40;;;;;;5036079;28;20214;-76
2022/08/14 03:43:42;;;;;;;3.30;3.00;;;23.20;45.40;;;;;;5036561;28;20204;-76
2022/08/14 03:46:10;;;;;;;3.17;2.88;;;23.20;45.30;;;;;;5036227;28;20196;-76
2022/08/14 03:48:38;;;;;;;3.10;2.80;;;23.20;45.30;;;;;;5036244;28;20586;-76
2022/08/14 03:51:07;;;;;;;3.05;2.83;;;23.20;45.30;;;;;;5036101;28;20672;-76
2022/08/14 03:53:36;;;;;;;2.97;2.78;;;23.20;45.30;;;;;;5035993;28;20577;-76
2022/08/14 03:56:03;;;;;;;3.03;2.80;;;23.20;45.20;;;;;;5036315;28;20199;-76
2022/08/14 03:58:32;;;;;;;4.30;2.92;;;23.20;45.30;;;;;;5036131;28;20574;-76
2022/08/14 04:00:59;;;;;;;3.65;3.10;;;23.10;45.30;;;;;;5036738;28;20250;-76
2022/08/14 04:03:26;;;;;;;2.90;2.70;;;23.10;45.30;;;;;;5036487;28;20203;-76
2022/08/14 04:05:53;;;;;;;3.05;2.85;;;23.10;45.30;;;;;;5020904;28;20235;-76
2022/08/14 04:08:20;;;;;;;3.67;2.90;;;23.10;45.20;;;;;;5036117;28;20585;-76
2022/08/14 04:10:47;;;;;;;3.28;3.00;;;23.10;45.30;;;;;;5035841;28;20200;-76
2022/08/14 04:13:17;;;;;;;3.22;3.00;;;23.10;45.30;;;;;;5035368;28;20204;-76
2022/08/14 04:15:45;;;;;;;3.17;2.80;;;23.10;45.20;;;;;;5019822;28;20196;-76
2022/08/14 04:18:12;;;;;;;3.20;2.90;;;23.10;45.30;;;;;;5018842;28;20232;-76
2022/08/14 04:20:41;;;;;;;2.95;2.75;;;23.10;45.30;;;;;;5035305;28;20200;-76
2022/08/14 04:23:08;;;;;;;3.15;2.70;;;23.10;45.40;;;;;;5035166;28;20203;-76
2022/08/14 04:25:36;;;;;;;2.95;2.75;;;23.10;45.30;;;;;;5035560;28;20200;-76
2022/08/14 04:28:04;;;;;;;3.65;2.42;;;23.10;45.30;;;;;;5036296;28;20212;-76
2022/08/14 04:30:31;;;;;;;3.42;2.80;;;23.10;45.40;;;;;;5036575;28;20596;-76
2022/08/14 04:32:59;;;;;;;2.75;2.55;;;23.00;45.30;;;;;;5035229;28;20294;-76
2022/08/14 04:35:26;;;;;;;3.00;2.80;;;23.00;45.30;;;;;;5035094;28;20718;-76
2022/08/14 04:43:35;;;;;;;2.70;2.50;;;23.10;45.50;;;;;;5000256;28;20622;-76
2022/08/14 04:46:03;;;;;;;2.90;2.60;;;23.00;45.40;;;;;;5035264;28;20196;-76
2022/08/14 04:48:31;;;;;;;2.90;2.70;;;23.00;45.50;;;;;;5034542;28;20220;-76
2022/08/14 04:50:59;;;;;;;2.95;2.75;;;23.00;45.50;;;;;;5034915;28;20193;-76
2022/08/14 04:53:27;;;;;;;2.63;2.42;;;23.00;45.40;;;;;;5034339;28;20200;-76
2022/08/14 04:55:54;;;;;;;2.88;2.58;;;23.10;45.50;;;;;;5034384;28;20192;-76
2022/08/14 04:58:23;;;;;;;2.83;2.63;;;23.00;45.50;;;;;;5035587;28;20222;-76
2022/08/14 05:00:50;;;;;;;3.97;2.50;;;23.10;45.60;;;;;;5034818;28;20211;-76
2022/08/14 05:03:19;;;;;;;2.83;2.58;;;23.10;45.50;;;;;;5034310;28;20279;-76
2022/08/14 05:05:48;;;;;;;2.40;2.30;;;23.10;45.50;;;;;;5034767;28;20200;-76
2022/08/14 05:08:15;;;;;;;3.00;2.50;;;23.10;45.30;;;;;;5035744;28;20243;-76
2022/08/14 05:10:44;;;;;;;2.45;2.35;;;23.20;45.40;;;;;;5035627;28;20188;-76
2022/08/14 05:13:12;;;;;;;2.72;2.53;;;23.20;45.30;;;;;;5034613;28;20249;-76
2022/08/14 05:15:41;;;;;;;2.88;2.67;;;23.30;45.20;;;;;;5018141;28;20204;-76
2022/08/14 05:18:11;;;;;;;2.63;2.42;;;23.40;45.10;;;;;;5034141;28;20252;-76
2022/08/14 05:20:39;;;;;;;2.60;2.50;;;23.50;45.00;;;;;;5035657;28;20196;-76
2022/08/14 05:23:07;;;;;;;2.92;2.72;;;23.80;44.90;;;;;;5034249;28;20568;-76
2022/08/14 05:25:34;;;;;;;3.33;2.70;;;24.00;44.40;;;;;;5036206;28;20192;-76
2022/08/14 05:28:09;;;;;;;2.78;2.58;;;24.30;44.00;;;;;;5018123;28;20675;-76
2022/08/14 05:30:36;;;;;;;2.75;2.42;;;24.50;43.50;;;;;;5034274;28;20217;-76
2022/08/14 05:33:04;;;;;;;2.90;2.60;;;24.70;43.00;;;;;;5033658;28;20246;-76
2022/08/14 05:35:32;;;;;;;3.50;2.35;;;24.90;42.60;;;;;;5034400;28;20228;-76
2022/08/14 05:38:00;;;;;;;2.70;2.50;;;25.10;42.30;;;;;;5034898;28;20588;-76
2022/08/14 05:40:28;;;;;;;2.47;2.38;;;25.30;42.00;;;;;;5033514;28;20200;-76
2022/08/14 05:42:55;;;;;;;2.78;2.58;;;25.40;41.80;;;;;;5033113;28;20291;-76
2022/08/14 05:45:22;;;;;;;2.83;2.63;;;25.50;41.50;;;;;;5033252;28;20570;-76
2022/08/14 05:47:49;;;;;;;2.63;2.42;;;25.60;41.30;;;;;;5033203;28;20212;-76
2022/08/14 05:50:16;;;;;;;2.80;2.60;;;25.70;41.10;;;;;;5034399;28;20192;-76
2022/08/14 05:52:43;;;;;;;2.70;2.50;;;25.80;41.10;;;;;;5033874;28;20208;-76
2022/08/14 05:55:10;;;;;;;2.65;2.45;;;25.90;40.90;;;;;;5017918;28;20270;-76
2022/08/14 05:57:49;;;;;;;2.80;2.60;;;25.90;40.80;;;;;;5017634;28;20219;-76
2022/08/14 06:00:17;;;;;;;2.80;2.60;;;26.00;40.60;;;;;;5034364;28;20206;-76
2022/08/14 06:02:44;;;;;;;3.00;2.80;;;26.10;40.30;;;;;;5034712;28;20673;-76
2022/08/14 06:05:11;;;;;;;2.65;2.45;;;26.30;40.20;;;;;;5040405;28;20214;-76
2022/08/14 06:07:38;;;;;;;3.15;2.95;;;26.40;40.00;;;;;;5023890;28;20754;-76
2022/08/14 06:10:06;;;;;;;3.08;2.80;;;26.40;39.70;;;;;;5040379;28;20199;-76
2022/08/14 06:12:33;;;;;;;3.13;2.92;;;26.50;39.70;;;;;;5040724;28;20294;-76
2022/08/14 06:15:02;;;;;;;3.13;2.60;;;26.50;39.70;;;;;;5040936;28;20257;-76
2022/08/14 06:17:29;;;;;;;3.25;2.80;;;26.50;39.70;;;;;;5040850;28;20195;-76
2022/08/14 06:19:56;;;;;;;2.83;2.53;;;26.50;39.70;;;;;;5024721;28;20200;-76
2022/08/14 06:22:23;;;;;;;2.85;2.65;;;26.60;39.70;;;;;;5040786;28;20204;-76
2022/08/14 06:24:49;;;;;;;2.90;2.60;;;26.60;39.60;;;;;;5039795;28;20258;-76
2022/08/14 06:27:17;;;;;;;2.67;2.47;;;26.60;39.60;;;;;;5039391;28;20204;-75
2022/08/14 06:29:44;;;;;;;2.70;2.50;;;26.70;39.50;;;;;;5023192;28;20601;-76
2022/08/14 06:32:12;;;;;;;2.83;2.60;;;26.70;39.40;;;;;;5039617;28;20738;-76
2022/08/14 06:34:40;;;;;;;2.65;2.45;;;26.80;39.30;;;;;;5039577;28;20200;-76
2022/08/14 06:37:07;;;;;;;2.85;2.65;;;27.00;39.20;;;;;;5039596;28;20196;-76
2022/08/14 06:39:34;;;;;;;2.55;2.42;;;27.10;39.60;;;;;;5039255;28;20224;-76
2022/08/14 06:42:01;;;;;;;2.92;2.70;;;27.20;38.70;;;;;;5040703;28;20208;-76
2022/08/14 06:44:29;;;;;;;2.88;2.67;;;27.30;38.50;;;;;;5039803;28;20195;-76
2022/08/14 06:46:55;;;;;;;2.90;2.70;;;27.40;38.40;;;;;;5039448;28;20659;-76
2022/08/14 06:49:25;;;;;;;4.10;2.50;;;27.50;38.10;;;;;;5039534;28;20686;-76
2022/08/14 06:51:53;;;;;;;2.50;2.30;;;27.60;37.90;;;;;;5040166;28;20195;-76
2022/08/14 06:54:19;;;;;;;2.53;2.33;;;27.70;37.60;;;;;;5023166;28;20673;-76
2022/08/14 06:56:46;;;;;;;2.40;2.30;;;27.80;37.60;;;;;;5040538;28;20192;-76
2022/08/14 06:59:14;;;;;;;3.08;2.60;;;27.90;37.50;;;;;;5040468;28;20212;-75
2022/08/14 07:07:11;;;;;;;2.70;2.50;;;28.10;37.00;;;;;;5039735;28;20196;-77
2022/08/14 07:09:38;;;;;;;2.63;2.42;;;28.10;37.00;;;;;;5039667;28;20206;-77
2022/08/14 07:12:06;;;;;;;2.70;2.50;;;28.10;36.80;;;;;;5040189;28;20194;-76
2022/08/14 07:14:32;;;;;;;2.80;2.60;;;28.20;36.80;;;;;;5021802;28;20200;-77
2022/08/14 07:16:59;;;;;;;2.55;2.40;;;28.20;36.60;;;;;;5036655;28;20196;-76
2022/08/14 07:19:28;;;;;;;2.58;2.38;;;28.20;36.60;;;;;;5037666;28;20235;-76
2022/08/14 07:21:55;;;;;;;2.50;2.30;;;28.20;36.50;;;;;;5037236;28;20294;-77
2022/08/14 07:24:22;;;;;;;2.60;2.40;;;28.30;36.50;;;;;;5036604;28;20226;-76
2022/08/14 07:26:50;;;;;;;2.53;2.33;;;28.30;36.30;;;;;;5020529;28;20224;-77
2022/08/14 07:29:17;;;;;;;2.60;2.40;;;28.40;36.40;;;;;;5036144;28;20211;-76
2022/08/14 07:31:44;;;;;;;2.70;2.50;;;28.40;36.40;;;;;;5036868;28;20208;-76
2022/08/14 07:34:11;;;;;;;2.60;2.40;;;28.30;36.40;;;;;;5036753;28;20191;-77
2022/08/14 07:36:39;;;;;;;2.42;2.30;;;28.30;36.30;;;;;;5036705;28;20202;-77
2022/08/14 07:39:06;;;;;;;2.70;2.50;;;28.40;36.30;;;;;;5036438;28;20219;-76
2022/08/14 07:41:34;;;;;;;2.60;2.40;;;28.40;36.30;;;;;;5037007;28;20206;-77
2022/08/14 07:44:01;;;;;;;2.63;2.42;;;28.40;36.20;;;;;;5036374;28;20633;-77
2022/08/14 07:46:28;;;;;;;2.60;2.40;;;28.50;36.20;;;;;;5019635;28;20196;-76
2022/08/14 07:48:55;;;;;;;2.45;2.25;;;28.50;36.10;;;;;;5036302;28;20234;-76
2022/08/14 07:51:22;;;;;;;2.65;2.45;;;28.50;36.20;;;;;;5036492;28;20195;-77
2022/08/14 07:53:50;;;;;;;2.75;2.50;;;28.50;36.20;;;;;;5019726;28;20226;-77
2022/08/14 07:56:18;;;;;;;2.30;2.20;;;28.50;36.10;;;;;;5036181;28;20294;-77
2022/08/14 07:58:45;;;;;;;2.58;2.38;;;28.60;36.00;;;;;;5036053;28;20636;-77
2022/08/14 08:01:12;;;;;;;2.50;2.30;;;28.70;35.90;;;;;;5037324;28;20238;-77
2022/08/14 08:03:39;;;;;;;2.83;2.63;;;28.90;35.70;;;;;;5035760;28;20623;-76
2022/08/14 08:06:07;;;;;;;2.17;2.08;;;29.00;35.50;;;;;;5035842;28;20206;-77
2022/08/14 08:08:34;;;;;;;2.33;2.13;;;29.10;35.20;;;;;;5019796;28;20751;-76
2022/08/14 08:11:02;;;;;;;2.22;2.10;;;29.20;35.10;;;;;;5035836;28;20238;-76
2022/08/14 08:13:30;;;;;;;2.38;2.25;;;29.30;34.90;;;;;;5035781;28;20204;-76
2022/08/14 08:15:57;;;;;;;2.38;2.28;;;29.30;34.70;;;;;;5035664;28;20685;-77
2022/08/14 08:18:23;;;;;;;2.25;2.00;;;29.40;34.60;;;;;;5035961;28;20222;-77
2022/08/14 08:20:53;;;;;;;2.40;2.20;;;29.50;34.50;;;;;;5035212;28;20565;-77
2022/08/14 08:23:20;;;;;;;2.38;2.28;;;29.50;34.40;;;;;;5035532;28;20231;-77
2022/08/14 08:25:48;;;;;;;2.38;2.20;;;29.50;34.30;;;;;;5035395;28;20203;-77
2022/08/14 08:28:19;;;;;;;2.22;2.13;;;29.60;34.30;;;;;;5034523;28;20249;-77
2022/08/14 08:30:48;;;;;;;2.38;2.20;;;29.60;34.10;;;;;;5035462;28;20206;-77
2022/08/14 08:33:16;;;;;;;2.40;2.20;;;29.70;34.10;;;;;;5036615;28;20188;-76
2022/08/14 08:35:43;;;;;;;2.00;1.90;;;29.80;34.20;;;;;;5018951;28;20203;-77
2022/08/14 08:38:12;;;;;;;2.10;2.00;;;29.70;34.10;;;;;;5035211;28;20243;-77
2022/08/14 08:40:41;;;;;;;2.40;2.30;;;29.80;34.00;;;;;;5019033;28;20203;-77
2022/08/14 08:43:09;;;;;;;2.20;2.10;;;29.90;33.90;;;;;;5034948;28;20632;-77
2022/08/14 08:45:37;;;;;;;2.17;2.08;;;29.90;33.70;;;;;;5019318;28;20720;-77
2022/08/14 08:48:06;;;;;;;2.33;2.20;;;29.90;33.60;;;;;;5034805;28;20314;-77
2022/08/14 08:50:34;;;;;;;2.20;2.10;;;29.90;33.60;;;;;;5034860;28;20642;-78
2022/08/14 08:53:02;;;;;;;2.47;2.33;;;30.00;33.60;;;;;;5035282;28;20247;-77
2022/08/14 08:55:30;;;;;;;2.25;2.05;;;30.00;33.50;;;;;;5034903;28;20226;-77
2022/08/14 08:57:58;;;;;;;2.08;1.98;;;30.00;33.40;;;;;;5034652;28;20226;-77
2022/08/14 09:00:25;;;;;;;2.17;2.08;;;30.00;33.50;;;;;;5035094;28;20700;-77
2022/08/14 09:02:58;;;;;;;2.00;1.90;;;30.00;33.40;;;;;;5034740;28;20536;-77
2022/08/14 09:05:25;;;;;;;2.15;2.05;;;30.00;33.50;;;;;;5034813;28;20218;-75
2022/08/14 09:07:52;;;;;;;2.30;2.10;;;30.10;33.40;;;;;;5034748;28;20211;-76
2022/08/14 09:10:19;;;;;;;2.20;2.10;;;30.10;33.30;;;;;;5034872;28;20199;-76
2022/08/14 09:12:46;;;;;;;2.40;1.98;;;30.10;33.20;;;;;;5034778;28;20245;-75
2022/08/14 09:15:14;;;;;;;2.00;1.90;;;30.10;33.30;;;;;;5034497;28;20294;-75
2022/08/14 09:17:41;;;;;;;2.17;2.08;;;30.00;33.30;;;;;;5034480;28;20222;-76
2022/08/14 09:20:11;;;;;;;2.20;2.10;;;30.00;33.50;;;;;;5034046;28;20751;-75
2022/08/14 09:22:37;;;;;;;3.15;2.47;;;30.00;33.80;;;;;;5033884;28;20194;-74
2022/08/14 09:25:05;;;;;;;3.60;2.60;;;30.00;34.20;;;;;;5034777;28;20195;-75
2022/08/14 09:27:33;;;;;;;3.17;2.38;;;29.90;34.00;;;;;;5034145;28;20219;-75
2022/08/14 09:29:59;;;;;;;4.85;2.40;;;29.90;34.30;;;;;;5034000;28;20708;-75
2022/08/14 09:32:30;;;;;;;2.90;2.40;;;29.90;34.00;;;;;;5033524;28;20196;-75
2022/08/14 09:35:01;;;;;;;2.92;2.70;;;29.90;34.20;;;;;;5017314;28;20245;-75
2022/08/14 09:37:34;;;;;;;2.75;2.55;;;29.90;35.20;;;;;;5034111;28;20314;-75
2022/08/14 09:40:07;;;;;;;2.78;2.55;;;29.90;34.20;;;;;;5033601;28;20222;-75
2022/08/14 09:42:48;;;;;;;2.55;2.35;;;29.90;34.20;;;;;;5034788;28;20302;-75
2022/08/14 09:45:16;;;;;;;2.70;2.50;;;29.90;34.30;;;;;;5033160;28;20192;-75
2022/08/14 09:47:45;;;;;;;2.60;2.42;;;29.90;34.20;;;;;;5033013;28;20219;-75
2022/08/14 09:50:17;;;;;;;2.90;2.58;;;29.80;34.20;;;;;;5033381;28;20191;-75
2022/08/14 09:52:51;;;;;;;3.03;2.70;;;29.80;35.00;;;;;;5033451;28;20199;-75
2022/08/14 09:55:19;;;;;;;7.30;4.70;;;29.80;34.90;;;;;;5033298;28;20257;-75
2022/08/14 09:57:46;;;;;;;94.57;65.28;;;29.70;34.90;;;;;;5033884;28;20581;-75
2022/08/14 10:00:17;;;;;;;98.30;68.72;;;29.70;35.20;;;;;;5032946;28;20238;-75
2022/08/14 10:02:52;;;;;;;108.88;77.03;;;29.60;35.10;;;;;;5033286;28;20634;-75
2022/08/14 10:05:28;;;;;;;116.68;80.32;;;29.60;35.50;;;;;;5033512;28;20194;-76
2022/08/14 10:07:56;;;;;;;91.13;64.63;;;29.60;36.20;;;;;;5035041;28;20569;-76
2022/08/14 10:10:28;;;;;;;76.05;51.72;;;29.50;36.10;;;;;;5033537;28;20200;-76
2022/08/14 10:12:56;;;;;;;53.88;37.33;;;29.50;36.30;;;;;;5034102;28;20203;-75
2022/08/14 10:15:23;;;;;;;42.40;28.92;;;29.40;35.40;;;;;;5034213;28;20237;-75
2022/08/14 10:17:51;;;;;;;38.75;27.40;;;29.40;35.10;;;;;;5034012;28;20255;-75
2022/08/14 10:20:21;;;;;;;30.02;22.45;;;29.40;35.50;;;;;;5017746;28;20221;-75
2022/08/14 10:22:49;;;;;;;27.55;19.33;;;29.30;35.30;;;;;;5034394;28;20199;-75
2022/08/14 10:25:18;;;;;;;25.60;18.35;;;29.20;35.10;;;;;;5017256;28;20297;-75
2022/08/14 10:27:49;;;;;;;22.20;15.38;;;29.20;35.40;;;;;;5033594;28;20214;-75
2022/08/14 10:30:19;;;;;;;22.33;14.23;;;29.20;35.40;;;;;;5033720;28;20638;-75
2022/08/14 10:32:47;;;;;;;18.60;11.45;;;29.30;35.20;;;;;;5018713;28;20236;-75
2022/08/14 10:35:14;;;;;;;9.90;8.25;;;29.30;34.70;;;;;;5034284;28;20195;-76
2022/08/14 10:37:45;;;;;;;13.20;8.45;;;29.40;34.30;;;;;;5033975;28;20230;-75
2022/08/14 10:40:14;;;;;;;15.63;7.20;;;29.40;34.40;;;;;;5033388;28;20211;-75
2022/08/14 10:42:42;;;;;;;8.18;6.82;;;29.40;34.30;;;;;;5032905;28;20203;-75
2022/08/14 10:45:20;;;;;;;8.45;6.45;;;29.40;34.60;;;;;;5032769;28;20738;-75
2022/08/14 10:47:47;;;;;;;7.65;6.18;;;29.40;34.80;;;;;;5033206;28;20309;-75
2022/08/14 10:50:14;;;;;;;10.93;5.75;;;29.40;35.00;;;;;;5034344;28;20279;-75
2022/08/14 10:52:41;;;;;;;8.13;5.20;;;29.30;35.10;;;;;;5036307;28;20196;-75
2022/08/14 10:55:12;;;;;;;6.57;5.13;;;29.30;35.10;;;;;;5019708;28;20226;-75
2022/08/14 10:57:52;;;;;;;6.30;5.00;;;29.20;35.30;;;;;;5036017;28;20211;-75
2022/08/14 11:00:19;;;;;;;7.38;4.88;;;29.20;35.40;;;;;;5036425;28;20704;-75
2022/08/14 11:02:57;;;;;;;5.25;4.22;;;29.20;35.40;;;;;;5036291;28;20206;-75
2022/08/14 11:05:26;;;;;;;6.78;4.05;;;29.10;35.20;;;;;;5036485;28;20218;-75
2022/08/14 11:07:59;;;;;;;4.05;3.63;;;29.10;35.10;;;;;;5036264;28;20219;-75
2022/08/14 11:10:41;;;;;;;4.72;3.78;;;29.10;35.10;;;;;;5036276;28;20187;-76
2022/08/14 11:13:09;;;;;;;4.05;3.15;;;29.10;34.90;;;;;;5036185;28;20184;-76
2022/08/14 11:15:36;;;;;;;4.35;3.33;;;29.00;35.00;;;;;;5036085;28;20208;-75
2022/08/14 11:18:03;;;;;;;4.18;3.65;;;29.00;34.50;;;;;;5019888;28;20231;-75
2022/08/14 11:20:31;;;;;;;3.70;3.40;;;29.00;34.70;;;;;;5036206;28;20218;-75
2022/08/14 11:22:59;;;;;;;3.30;3.00;;;29.00;34.30;;;;;;5036803;28;20223;-75
2022/08/14 11:25:28;;;;;;;3.67;3.38;;;29.00;34.40;;;;;;5036142;28;20208;-75
2022/08/14 11:27:56;;;;;;;4.22;3.30;;;28.90;34.50;;;;;;5020060;28;20685;-75
2022/08/14 11:30:26;;;;;;;3.60;3.30;;;28.90;34.50;;;;;;5036275;28;20621;-75
2022/08/14 11:32:53;;;;;;;3.35;3.05;;;28.90;34.40;;;;;;5036352;28;20202;-75
2022/08/14 11:35:21;;;;;;;3.55;3.25;;;28.90;34.10;;;;;;5036361;28;20198;-75
2022/08/14 11:37:50;;;;;;;4.47;3.13;;;28.80;35.20;;;;;;5036645;28;20223;-75
2022/08/14 11:40:17;;;;;;;4.00;3.22;;;28.80;34.80;;;;;;5037871;28;20650;-76
2022/08/14 11:42:45;;;;;;;3.88;3.58;;;28.80;35.20;;;;;;5040873;28;20199;-75
2022/08/14 11:45:12;;;;;;;3.40;3.10;;;28.80;35.90;;;;;;5037296;28;20191;-75
2022/08/14 11:47:40;;;;;;;4.97;3.50;;;28.80;35.40;;;;;;5035392;28;20310;-75
2022/08/14 11:50:12;;;;;;;3.38;3.08;;;28.70;35.70;;;;;;5035564;28;20196;-75
2022/08/14 11:52:40;;;;;;;3.10;2.90;;;28.70;35.50;;;;;;5035505;28;20191;-76
2022/08/14 11:55:10;;;;;;;4.28;3.20;;;28.70;34.80;;;;;;5035424;28;20203;-76
2022/08/14 11:57:37;;;;;;;4.78;3.10;;;28.70;34.30;;;;;;5035528;28;20354;-76
2022/08/14 12:00:05;;;;;;;3.50;3.30;;;28.70;33.50;;;;;;5035280;28;20211;-75
2022/08/14 12:02:33;;;;;;;3.30;3.10;;;28.70;33.60;;;;;;5035951;28;20191;-75
2022/08/14 12:05:01;;;;;;;3.20;3.00;;;28.70;34.10;;;;;;5035913;28;20207;-76
2022/08/14 12:07:28;;;;;;;3.20;3.00;;;28.60;33.50;;;;;;5035725;28;20203;-75
2022/08/14 12:09:56;;;;;;;4.15;2.92;;;28.70;34.00;;;;;;5038478;28;20184;-75
2022/08/14 12:12:24;;;;;;;3.50;3.17;;;28.60;34.10;;;;;;5038010;28;20188;-75
2022/08/14 12:14:55;;;;;;;3.92;3.20;;;28.60;33.80;;;;;;5036107;28;20274;-74
2022/08/14 12:17:22;;;;;;;3.25;2.80;;;28.60;33.70;;;;;;5036027;28;20188;-75
2022/08/14 12:19:50;;;;;;;2.95;2.75;;;28.50;33.60;;;;;;5035618;28;20215;-75
2022/08/14 12:22:19;;;;;;;3.30;3.00;;;28.60;33.60;;;;;;5035855;28;20203;-75
2022/08/14 12:24:46;;;;;;;3.17;2.88;;;28.50;33.80;;;;;;5035525;28;20207;-75
2022/08/14 12:27:13;;;;;;;3.20;3.00;;;28.50;34.00;;;;;;5034709;28;20290;-75
2022/08/14 12:29:52;;;;;;;2.92;2.72;;;28.40;33.70;;;;;;5036561;28;20204;-75
2022/08/14 12:32:19;;;;;;;3.10;2.90;;;28.40;33.30;;;;;;5035889;28;20195;-75
2022/08/14 12:34:52;;;;;;;3.13;2.85;;;28.40;33.90;;;;;;5035055;28;20203;-75
2022/08/14 12:37:28;;;;;;;3.17;2.70;;;28.40;32.80;;;;;;5035169;28;20206;-75
2022/08/14 12:39:55;;;;;;;3.22;2.53;;;28.40;32.90;;;;;;5036335;28;20557;-75
2022/08/14 12:42:33;;;;;;;2.70;2.50;;;28.30;32.80;;;;;;5034841;28;20195;-76
2022/08/14 12:45:00;;;;;;;3.10;2.47;;;28.30;32.50;;;;;;5036045;28;20179;-75
2022/08/14 12:47:30;;;;;;;5.28;2.50;;;28.30;32.40;;;;;;5034124;28;20199;-76
2022/08/14 12:49:57;;;;;;;2.95;2.75;;;28.30;32.20;;;;;;5034868;28;20183;-75
2022/08/14 12:52:30;;;;;;;2.45;2.28;;;28.20;32.40;;;;;;5034717;28;20200;-75
2022/08/14 12:54:59;;;;;;;3.33;2.60;;;28.30;32.60;;;;;;5034704;28;20196;-75
2022/08/14 12:57:34;;;;;;;2.78;2.58;;;28.20;32.50;;;;;;5034817;28;20335;-75
2022/08/14 13:00:10;;;;;;;2.58;2.38;;;28.20;32.70;;;;;;5035277;28;20253;-75
2022/08/14 13:02:38;;;;;;;2.80;2.60;;;28.20;32.70;;;;;;5034437;28;20191;-75
2022/08/14 13:05:08;;;;;;;2.60;2.40;;;28.20;32.60;;;;;;5017911;28;20696;-75